sensor_id;sensor_type;location;lat;lon;timestamp;temperature;humidity
59067;DHT22;44854;50.838;4.438;2023-08-12T05:35:47;21.00;99.90
59067;DHT22;44854;50.838;4.438;2023-08-12T05:38:13;21.00;99.90
59067;DHT22;44854;50.838;4.438;2023-08-12T05:40:38;21.10;99.90
59067;DHT22;44854;50.838;4.438;2023-08-12T05:43:04;21.30;99.90
59067;DHT22;44854;50.838;4.438;2023-08-12T05:45:30;21.30;99.90
59067;DHT22;44854;50.838;4.438;2023-08-12T05:47:55;21.30;99.90
59067;DHT22;44854;50.838;4.438;2023-08-12T05:50:21;21.30;99.90
59067;DHT22;44854;50.838;4.438;2023-08-12T05:52:46;21.20;99.90
59067;DHT22;44854;50.838;4.438;2023-08-12T05:55:12;21.30;99.90
59067;DHT22;44854;50.838;4.438;2023-08-12T05:57:37;21.20;99.90
59067;DHT22;44854;50.838;4.438;2023-08-12T06:00:03;21.10;99.90
59067;DHT22;44854;50.838;4.438;2023-08-12T06:02:29;21.00;99.90
59067;DHT22;44854;50.838;4.438;2023-08-12T06:04:54;21.00;99.90
59067;DHT22;44854;50.838;4.438;2023-08-12T06:07:20;21.10;99.90
59067;DHT22;44854;50.838;4.438;2023-08-12T06:09:45;21.10;99.90
59067;DHT22;44854;50.838;4.438;2023-08-12T06:12:11;21.10;99.90
59067;DHT22;44854;50.838;4.438;2023-08-12T06:14:37;21.10;99.90
59067;DHT22;44854;50.838;4.438;2023-08-12T06:17:03;21.00;99.90
59067;DHT22;44854;50.838;4.438;2023-08-12T06:19:29;21.10;99.90
59067;DHT22;44854;50.838;4.438;2023-08-12T06:21:54;21.10;99.90
59067;DHT22;44854;50.838;4.438;2023-08-12T06:24:20;21.10;99.90
59067;DHT22;44854;50.838;4.438;2023-08-12T06:26:45;21.00;99.90
59067;DHT22;44854;50.838;4.438;2023-08-12T06:29:11;21.00;99.90
59067;DHT22;44854;50.838;4.438;2023-08-12T06:31:36;21.10;99.90
59067;DHT22;44854;50.838;4.438;2023-08-12T06:34:02;21.30;99.90
59067;DHT22;44854;50.838;4.438;2023-08-12T06:36:27;21.40;99.90
59067;DHT22;44854;50.838;4.438;2023-08-12T06:38:53;21.30;99.90
59067;DHT22;44854;50.838;4.438;2023-08-12T06:41:18;21.20;99.90
59067;DHT22;44854;50.838;4.438;2023-08-12T06:43:44;21.40;99.90
59067;DHT22;44854;50.838;4.438;2023-08-12T06:46:09;21.40;99.90
59067;DHT22;44854;50.838;4.438;2023-08-12T06:48:35;21.40;99.90
59067;DHT22;44854;50.838;4.438;2023-08-12T06:51:00;21.40;99.90
59067;DHT22;44854;50.838;4.438;2023-08-12T06:53:29;21.30;99.90
59067;DHT22;44854;50.838;4.438;2023-08-12T06:55:55;21.40;99.90
59067;DHT22;44854;50.838;4.438;2023-08-12T06:58:21;21.40;99.90
59067;DHT22;44854;50.838;4.438;2023-08-12T07:00:46;21.40;99.90
59067;DHT22;44854;50.838;4.438;2023-08-12T07:03:12;21.40;99.90
59067;DHT22;44854;50.838;4.438;2023-08-12T07:05:37;21.50;99.90
59067;DHT22;44854;50.838;4.438;2023-08-12T07:08:03;21.50;99.90
59067;DHT22;44854;50.838;4.438;2023-08-12T07:10:28;21.40;99.90
59067;DHT22;44854;50.838;4.438;2023-08-12T07:12:54;21.40;99.90
59067;DHT22;44854;50.838;4.438;2023-08-12T07:15:19;21.50;99.90
59067;DHT22;44854;50.838;4.438;2023-08-12T07:17:45;21.40;99.90
59067;DHT22;44854;50.838;4.438;2023-08-12T07:20:10;21.40;99.90
59067;DHT22;44854;50.838;4.438;2023-08-12T07:22:36;21.20;99.90
59067;DHT22;44854;50.838;4.438;2023-08-12T07:25:02;21.20;99.90
59067;DHT22;44854;50.838;4.438;2023-08-12T07:27:27;21.00;99.90
59067;DHT22;44854;50.838;4.438;2023-08-12T07:29:53;20.80;99.90
59067;DHT22;44854;50.838;4.438;2023-08-12T07:32:18;20.60;99.90
59067;DHT22;44854;50.838;4.438;2023-08-12T07:34:44;20.50;99.90
59067;DHT22;44854;50.838;4.438;2023-08-12T07:37:10;20.30;99.90
59067;DHT22;44854;50.838;4.438;2023-08-12T07:39:35;20.20;99.90
59067;DHT22;44854;50.838;4.438;2023-08-12T07:42:01;20.10;99.90
59067;DHT22;44854;50.838;4.438;2023-08-12T07:44:26;20.00;99.90
59067;DHT22;44854;50.838;4.438;2023-08-12T07:46:52;20.10;99.90
59067;DHT22;44854;50.838;4.438;2023-08-12T07:49:17;20.30;99.90
59067;DHT22;44854;50.838;4.438;2023-08-12T07:51:43;20.30;99.90
59067;DHT22;44854;50.838;4.438;2023-08-12T07:54:08;20.30;99.90
59067;DHT22;44854;50.838;4.438;2023-08-12T07:56:34;20.50;99.90
59067;DHT22;44854;50.838;4.438;2023-08-12T07:58:59;20.60;99.90
59067;DHT22;44854;50.838;4.438;2023-08-12T08:01:25;20.60;99.90
59067;DHT22;44854;50.838;4.438;2023-08-12T08:03:50;20.50;99.90
59067;DHT22;44854;50.838;4.438;2023-08-12T08:06:16;20.40;99.90
59067;DHT22;44854;50.838;4.438;2023-08-12T08:08:41;20.50;99.90
59067;DHT22;44854;50.838;4.438;2023-08-12T08:11:07;20.70;99.90
59067;DHT22;44854;50.838;4.438;2023-08-12T08:13:33;20.80;99.90
59067;DHT22;44854;50.838;4.438;2023-08-12T08:15:59;20.80;99.90
59067;DHT22;44854;50.838;4.438;2023-08-12T08:18:25;20.70;99.90
59067;DHT22;44854;50.838;4.438;2023-08-12T08:20:50;20.60;99.90
59067;DHT22;44854;50.838;4.438;2023-08-12T08:23:16;20.70;99.90
59067;DHT22;44854;50.838;4.438;2023-08-12T08:25:41;20.70;99.90
59067;DHT22;44854;50.838;4.438;2023-08-12T08:28:07;20.60;99.90
59067;DHT22;44854;50.838;4.438;2023-08-12T08:30:33;20.60;99.90
59067;DHT22;44854;50.838;4.438;2023-08-12T08:32:59;20.60;99.90
59067;DHT22;44854;50.838;4.438;2023-08-12T08:35:25;20.80;99.90
59067;DHT22;44854;50.838;4.438;2023-08-12T08:37:50;21.00;99.90
59067;DHT22;44854;50.838;4.438;2023-08-12T08:40:16;21.10;99.90
59067;DHT22;44854;50.838;4.438;2023-08-12T08:42:41;21.20;99.90
59067;DHT22;44854;50.838;4.438;2023-08-12T08:45:10;21.20;99.90
59067;DHT22;44854;50.838;4.438;2023-08-12T08:47:37;21.40;99.90
59067;DHT22;44854;50.838;4.438;2023-08-12T08:50:03;21.40;99.90
59067;DHT22;44854;50.838;4.438;2023-08-12T08:52:29;21.30;99.90
59067;DHT22;44854;50.838;4.438;2023-08-12T08:54:54;21.20;99.90
59067;DHT22;44854;50.838;4.438;2023-08-12T08:57:20;21.10;99.90
59067;DHT22;44854;50.838;4.438;2023-08-12T08:59:46;20.90;99.90
59067;DHT22;44854;50.838;4.438;2023-08-12T09:02:18;20.90;99.90
59067;DHT22;44854;50.838;4.438;2023-08-12T09:04:44;20.90;99.90
59067;DHT22;44854;50.838;4.438;2023-08-12T09:07:10;20.80;99.90
59067;DHT22;44854;50.838;4.438;2023-08-12T09:09:36;20.90;99.90
59067;DHT22;44854;50.838;4.438;2023-08-12T09:12:02;21.00;99.90
59067;DHT22;44854;50.838;4.438;2023-08-12T09:14:28;21.20;99.90
59067;DHT22;44854;50.838;4.438;2023-08-12T09:16:54;21.30;99.90
59067;DHT22;44854;50.838;4.438;2023-08-12T09:19:20;21.50;99.90
59067;DHT22;44854;50.838;4.438;2023-08-12T09:21:51;21.30;99.90
59067;DHT22;44854;50.838;4.438;2023-08-12T09:24:16;21.30;99.90
59067;DHT22;44854;50.838;4.438;2023-08-12T09:26:43;21.20;99.90
59067;DHT22;44854;50.838;4.438;2023-08-12T09:29:09;21.20;99.90
59067;DHT22;44854;50.838;4.438;2023-08-12T09:31:34;21.10;99.90
59067;DHT22;44854;50.838;4.438;2023-08-12T09:34:03;21.10;99.90
59067;DHT22;44854;50.838;4.438;2023-08-12T09:36:29;21.50;99.90
59067;DHT22;44854;50.838;4.438;2023-08-12T09:38:56;21.40;99.90
59067;DHT22;44854;50.838;4.438;2023-08-12T09:41:22;21.20;99.90
59067;DHT22;44854;50.838;4.438;2023-08-12T09:43:50;21.10;99.90
59067;DHT22;44854;50.838;4.438;2023-08-12T09:46:15;21.20;99.90
59067;DHT22;44854;50.838;4.438;2023-08-12T09:48:41;21.10;99.90
59067;DHT22;44854;50.838;4.438;2023-08-12T09:51:08;21.20;99.90
59067;DHT22;44854;50.838;4.438;2023-08-12T09:53:34;21.30;99.90
59067;DHT22;44854;50.838;4.438;2023-08-12T09:56:02;21.30;99.90
59067;DHT22;44854;50.838;4.438;2023-08-12T09:58:30;21.40;99.90
59067;DHT22;44854;50.838;4.438;2023-08-12T10:00:57;21.50;99.90
59067;DHT22;44854;50.838;4.438;2023-08-12T10:03:23;21.50;99.90
59067;DHT22;44854;50.838;4.438;2023-08-12T10:05:49;21.70;99.90
59067;DHT22;44854;50.838;4.438;2023-08-12T10:08:15;21.60;99.90
59067;DHT22;44854;50.838;4.438;2023-08-12T10:10:41;21.80;99.90
59067;DHT22;44854;50.838;4.438;2023-08-12T10:13:08;21.80;99.90
59067;DHT22;44854;50.838;4.438;2023-08-12T10:15:34;21.70;99.90
59067;DHT22;44854;50.838;4.438;2023-08-12T10:18:00;21.90;99.90
59067;DHT22;44854;50.838;4.438;2023-08-12T10:20:25;22.00;99.90
59067;DHT22;44854;50.838;4.438;2023-08-12T10:22:52;22.10;99.90
59067;DHT22;44854;50.838;4.438;2023-08-12T10:25:19;21.90;99.90
59067;DHT22;44854;50.838;4.438;2023-08-12T10:27:47;22.00;99.90
59067;DHT22;44854;50.838;4.438;2023-08-12T10:30:13;22.20;99.90
59067;DHT22;44854;50.838;4.438;2023-08-12T10:32:39;22.20;99.90
59067;DHT22;44854;50.838;4.438;2023-08-12T10:35:05;22.20;99.90
59067;DHT22;44854;50.838;4.438;2023-08-12T10:37:32;22.40;99.90
59067;DHT22;44854;50.838;4.438;2023-08-12T10:40:03;22.50;99.90
59067;DHT22;44854;50.838;4.438;2023-08-12T10:42:42;22.70;99.90
59067;DHT22;44854;50.838;4.438;2023-08-12T10:45:08;22.80;99.90
59067;DHT22;44854;50.838;4.438;2023-08-12T10:47:38;22.60;99.90
59067;DHT22;44854;50.838;4.438;2023-08-12T10:50:04;22.60;99.90
59067;DHT22;44854;50.838;4.438;2023-08-12T10:52:30;22.50;99.90
59067;DHT22;44854;50.838;4.438;2023-08-12T10:57:41;22.40;99.90
59067;DHT22;44854;50.838;4.438;2023-08-12T11:00:10;22.60;99.90
59067;DHT22;44854;50.838;4.438;2023-08-12T11:02:36;22.70;99.90
59067;DHT22;44854;50.838;4.438;2023-08-12T11:05:03;22.80;99.90
59067;DHT22;44854;50.838;4.438;2023-08-12T11:07:39;22.80;99.90
59067;DHT22;44854;50.838;4.438;2023-08-12T11:10:10;22.80;99.90
59067;DHT22;44854;50.838;4.438;2023-08-12T11:12:37;23.00;99.90
59067;DHT22;44854;50.838;4.438;2023-08-12T11:15:03;22.90;99.90
59067;DHT22;44854;50.838;4.438;2023-08-12T11:17:41;23.10;99.90
59067;DHT22;44854;50.838;4.438;2023-08-12T11:20:08;23.10;99.90
59067;DHT22;44854;50.838;4.438;2023-08-12T11:22:35;23.10;99.90
59067;DHT22;44854;50.838;4.438;2023-08-12T11:25:02;23.10;99.90
59067;DHT22;44854;50.838;4.438;2023-08-12T11:27:27;23.20;99.90
59067;DHT22;44854;50.838;4.438;2023-08-12T11:29:53;23.20;99.90
59067;DHT22;44854;50.838;4.438;2023-08-12T11:32:19;23.30;99.90
59067;DHT22;44854;50.838;4.438;2023-08-12T11:34:44;23.30;99.90
59067;DHT22;44854;50.838;4.438;2023-08-12T11:37:10;23.30;99.90
59067;DHT22;44854;50.838;4.438;2023-08-12T11:39:36;23.30;99.90
59067;DHT22;44854;50.838;4.438;2023-08-12T11:42:02;23.00;99.90
59067;DHT22;44854;50.838;4.438;2023-08-12T11:44:28;22.80;99.90
59067;DHT22;44854;50.838;4.438;2023-08-12T11:46:54;23.00;99.90
59067;DHT22;44854;50.838;4.438;2023-08-12T11:49:19;23.00;99.90
59067;DHT22;44854;50.838;4.438;2023-08-12T11:51:46;22.90;99.90
59067;DHT22;44854;50.838;4.438;2023-08-12T11:54:12;23.30;99.90
59067;DHT22;44854;50.838;4.438;2023-08-12T11:56:38;23.50;99.90
59067;DHT22;44854;50.838;4.438;2023-08-12T11:59:03;23.60;99.90
59067;DHT22;44854;50.838;4.438;2023-08-12T12:01:31;23.50;99.90
59067;DHT22;44854;50.838;4.438;2023-08-12T12:03:59;23.60;99.90
59067;DHT22;44854;50.838;4.438;2023-08-12T12:06:28;23.70;99.90
59067;DHT22;44854;50.838;4.438;2023-08-12T12:08:54;23.80;99.90
59067;DHT22;44854;50.838;4.438;2023-08-12T12:11:20;23.70;99.90
59067;DHT22;44854;50.838;4.438;2023-08-12T12:13:46;23.80;99.90
59067;DHT22;44854;50.838;4.438;2023-08-12T12:16:12;23.70;99.90
59067;DHT22;44854;50.838;4.438;2023-08-12T12:18:38;24.10;99.90
59067;DHT22;44854;50.838;4.438;2023-08-12T12:21:03;24.40;99.90
59067;DHT22;44854;50.838;4.438;2023-08-12T12:23:29;24.50;99.90
59067;DHT22;44854;50.838;4.438;2023-08-12T12:25:58;24.70;99.90
59067;DHT22;44854;50.838;4.438;2023-08-12T12:28:24;24.70;99.90
59067;DHT22;44854;50.838;4.438;2023-08-12T12:30:50;24.60;99.90
59067;DHT22;44854;50.838;4.438;2023-08-12T12:33:15;24.70;99.90
59067;DHT22;44854;50.838;4.438;2023-08-12T12:35:41;24.60;99.90
59067;DHT22;44854;50.838;4.438;2023-08-12T12:38:07;24.50;99.90
59067;DHT22;44854;50.838;4.438;2023-08-12T12:40:32;24.60;99.90
59067;DHT22;44854;50.838;4.438;2023-08-12T12:42:58;24.70;99.90
59067;DHT22;44854;50.838;4.438;2023-08-12T12:45:24;24.60;99.90
59067;DHT22;44854;50.838;4.438;2023-08-12T12:47:50;24.40;99.90
59067;DHT22;44854;50.838;4.438;2023-08-12T12:50:15;24.30;99.90
59067;DHT22;44854;50.838;4.438;2023-08-12T12:52:42;24.30;99.90
59067;DHT22;44854;50.838;4.438;2023-08-12T12:55:08;24.20;99.90
59067;DHT22;44854;50.838;4.438;2023-08-12T12:57:33;24.40;99.90
59067;DHT22;44854;50.838;4.438;2023-08-12T13:00:00;24.50;99.90
59067;DHT22;44854;50.838;4.438;2023-08-12T13:02:25;24.70;99.90
59067;DHT22;44854;50.838;4.438;2023-08-12T13:04:52;24.80;99.90
59067;DHT22;44854;50.838;4.438;2023-08-12T13:07:17;25.00;99.90
59067;DHT22;44854;50.838;4.438;2023-08-12T13:09:43;25.00;99.90
59067;DHT22;44854;50.838;4.438;2023-08-12T13:12:09;24.70;99.90
59067;DHT22;44854;50.838;4.438;2023-08-12T13:14:34;24.70;99.90
59067;DHT22;44854;50.838;4.438;2023-08-12T13:17:00;24.60;99.90
59067;DHT22;44854;50.838;4.438;2023-08-12T13:19:26;24.60;99.90
59067;DHT22;44854;50.838;4.438;2023-08-12T13:21:52;24.80;99.90
59067;DHT22;44854;50.838;4.438;2023-08-12T13:24:17;25.20;99.90
59067;DHT22;44854;50.838;4.438;2023-08-12T13:26:43;25.20;99.90
59067;DHT22;44854;50.838;4.438;2023-08-12T13:29:08;25.10;99.90
59067;DHT22;44854;50.838;4.438;2023-08-12T13:31:34;25.20;99.90
59067;DHT22;44854;50.838;4.438;2023-08-12T13:33:59;25.30;99.90
59067;DHT22;44854;50.838;4.438;2023-08-12T13:36:25;25.40;99.90
59067;DHT22;44854;50.838;4.438;2023-08-12T13:38:50;25.40;99.90
59067;DHT22;44854;50.838;4.438;2023-08-12T13:41:16;25.20;99.90
59067;DHT22;44854;50.838;4.438;2023-08-12T13:43:41;25.20;99.90
59067;DHT22;44854;50.838;4.438;2023-08-12T13:46:07;25.10;99.90
59067;DHT22;44854;50.838;4.438;2023-08-12T13:48:32;24.80;99.90
59067;DHT22;44854;50.838;4.438;2023-08-12T13:50:58;24.80;99.90
59067;DHT22;44854;50.838;4.438;2023-08-12T13:53:24;25.10;99.90
59067;DHT22;44854;50.838;4.438;2023-08-12T13:55:49;25.10;99.90
59067;DHT22;44854;50.838;4.438;2023-08-12T13:58:15;25.10;99.90
59067;DHT22;44854;50.838;4.438;2023-08-12T14:00:41;25.10;99.90
59067;DHT22;44854;50.838;4.438;2023-08-12T14:03:07;24.90;99.90
59067;DHT22;44854;50.838;4.438;2023-08-12T14:05:32;25.10;99.90
59067;DHT22;44854;50.838;4.438;2023-08-12T14:07:58;25.20;99.90
59067;DHT22;44854;50.838;4.438;2023-08-12T14:10:24;25.20;99.90
59067;DHT22;44854;50.838;4.438;2023-08-12T14:12:50;25.10;99.90
59067;DHT22;44854;50.838;4.438;2023-08-12T14:15:15;25.20;99.90
59067;DHT22;44854;50.838;4.438;2023-08-12T14:17:41;25.30;99.90
59067;DHT22;44854;50.838;4.438;2023-08-12T14:20:06;25.10;99.90
59067;DHT22;44854;50.838;4.438;2023-08-12T14:22:36;25.10;99.90
59067;DHT22;44854;50.838;4.438;2023-08-12T14:25:02;25.10;99.90
59067;DHT22;44854;50.838;4.438;2023-08-12T14:27:29;25.10;99.90
59067;DHT22;44854;50.838;4.438;2023-08-12T14:29:54;25.20;99.90
59067;DHT22;44854;50.838;4.438;2023-08-12T14:32:20;25.20;99.90
59067;DHT22;44854;50.838;4.438;2023-08-12T14:34:45;25.20;99.90
59067;DHT22;44854;50.838;4.438;2023-08-12T14:37:11;25.20;99.90
59067;DHT22;44854;50.838;4.438;2023-08-12T14:39:38;25.10;99.90
59067;DHT22;44854;50.838;4.438;2023-08-12T14:42:03;25.10;99.90
59067;DHT22;44854;50.838;4.438;2023-08-12T14:44:29;25.20;99.90
59067;DHT22;44854;50.838;4.438;2023-08-12T14:47:00;25.20;99.90
59067;DHT22;44854;50.838;4.438;2023-08-12T14:49:26;25.40;99.90
59067;DHT22;44854;50.838;4.438;2023-08-12T14:51:51;25.30;99.90
59067;DHT22;44854;50.838;4.438;2023-08-12T14:54:17;25.40;99.90
59067;DHT22;44854;50.838;4.438;2023-08-12T14:56:42;25.30;99.90
59067;DHT22;44854;50.838;4.438;2023-08-12T14:59:09;25.00;99.90
59067;DHT22;44854;50.838;4.438;2023-08-12T15:01:35;24.90;99.90
59067;DHT22;44854;50.838;4.438;2023-08-12T15:04:00;25.20;99.90
59067;DHT22;44854;50.838;4.438;2023-08-12T15:06:26;25.40;99.90
59067;DHT22;44854;50.838;4.438;2023-08-12T15:08:52;25.70;99.90
59067;DHT22;44854;50.838;4.438;2023-08-12T15:11:17;25.70;99.90
59067;DHT22;44854;50.838;4.438;2023-08-12T15:13:43;25.70;99.90
59067;DHT22;44854;50.838;4.438;2023-08-12T15:16:08;25.60;99.90
59067;DHT22;44854;50.838;4.438;2023-08-12T15:18:36;25.20;99.90
59067;DHT22;44854;50.838;4.438;2023-08-12T15:21:02;25.00;99.90
59067;DHT22;44854;50.838;4.438;2023-08-12T15:23:27;24.90;99.90
59067;DHT22;44854;50.838;4.438;2023-08-12T15:25:53;25.00;99.90
59067;DHT22;44854;50.838;4.438;2023-08-12T15:28:18;25.10;99.90
59067;DHT22;44854;50.838;4.438;2023-08-12T15:30:48;25.20;99.90
59067;DHT22;44854;50.838;4.438;2023-08-12T15:33:14;25.30;99.90
59067;DHT22;44854;50.838;4.438;2023-08-12T15:35:40;25.20;99.90
59067;DHT22;44854;50.838;4.438;2023-08-12T15:38:05;25.30;99.90
59067;DHT22;44854;50.838;4.438;2023-08-12T15:40:31;25.10;99.90
59067;DHT22;44854;50.838;4.438;2023-08-12T15:42:57;25.20;99.90
59067;DHT22;44854;50.838;4.438;2023-08-12T15:45:22;25.20;99.90
59067;DHT22;44854;50.838;4.438;2023-08-12T15:47:48;25.20;99.90
59067;DHT22;44854;50.838;4.438;2023-08-12T15:50:13;25.20;99.90
59067;DHT22;44854;50.838;4.438;2023-08-12T15:52:39;25.40;99.90
59067;DHT22;44854;50.838;4.438;2023-08-12T15:55:04;25.60;99.90
59067;DHT22;44854;50.838;4.438;2023-08-12T15:57:30;25.50;99.90
59067;DHT22;44854;50.838;4.438;2023-08-12T15:59:56;25.50;99.90
59067;DHT22;44854;50.838;4.438;2023-08-12T16:02:22;25.50;99.90
59067;DHT22;44854;50.838;4.438;2023-08-12T16:04:51;25.30;99.90
59067;DHT22;44854;50.838;4.438;2023-08-12T16:07:16;25.30;99.90
59067;DHT22;44854;50.838;4.438;2023-08-12T16:09:42;25.10;99.90
59067;DHT22;44854;50.838;4.438;2023-08-12T16:12:07;25.00;99.90
59067;DHT22;44854;50.838;4.438;2023-08-12T16:14:33;24.80;99.90
59067;DHT22;44854;50.838;4.438;2023-08-12T16:17:00;24.80;99.90
59067;DHT22;44854;50.838;4.438;2023-08-12T16:19:26;24.80;99.90
59067;DHT22;44854;50.838;4.438;2023-08-12T16:21:52;24.90;99.90
59067;DHT22;44854;50.838;4.438;2023-08-12T16:24:17;24.80;99.90
59067;DHT22;44854;50.838;4.438;2023-08-12T16:26:43;24.70;99.90
59067;DHT22;44854;50.838;4.438;2023-08-12T16:29:08;24.70;99.90
59067;DHT22;44854;50.838;4.438;2023-08-12T16:31:34;24.80;99.90
59067;DHT22;44854;50.838;4.438;2023-08-12T16:33:59;24.70;99.90
59067;DHT22;44854;50.838;4.438;2023-08-12T16:36:25;24.90;99.90
59067;DHT22;44854;50.838;4.438;2023-08-12T16:38:50;24.90;99.90
59067;DHT22;44854;50.838;4.438;2023-08-12T16:41:16;25.00;99.90
59067;DHT22;44854;50.838;4.438;2023-08-12T16:43:42;25.10;99.90
59067;DHT22;44854;50.838;4.438;2023-08-12T16:46:08;25.10;99.90
59067;DHT22;44854;50.838;4.438;2023-08-12T16:48:33;25.20;99.90
59067;DHT22;44854;50.838;4.438;2023-08-12T16:50:59;25.10;99.90
59067;DHT22;44854;50.838;4.438;2023-08-12T16:53:24;24.90;99.90
59067;DHT22;44854;50.838;4.438;2023-08-12T16:55:50;24.60;99.90
59067;DHT22;44854;50.838;4.438;2023-08-12T16:58:15;24.50;99.90
59067;DHT22;44854;50.838;4.438;2023-08-12T17:00:41;24.60;99.90
59067;DHT22;44854;50.838;4.438;2023-08-12T17:03:08;24.70;99.90
59067;DHT22;44854;50.838;4.438;2023-08-12T17:05:33;24.80;99.90
59067;DHT22;44854;50.838;4.438;2023-08-12T17:07:59;24.90;99.90
59067;DHT22;44854;50.838;4.438;2023-08-12T17:10:25;24.70;99.90
59067;DHT22;44854;50.838;4.438;2023-08-12T17:12:51;24.80;99.90
59067;DHT22;44854;50.838;4.438;2023-08-12T17:15:16;24.90;99.90
59067;DHT22;44854;50.838;4.438;2023-08-12T17:17:42;24.70;99.90
59067;DHT22;44854;50.838;4.438;2023-08-12T17:20:07;24.50;99.90
59067;DHT22;44854;50.838;4.438;2023-08-12T17:22:33;24.40;99.90
59067;DHT22;44854;50.838;4.438;2023-08-12T17:25:00;24.30;99.90
59067;DHT22;44854;50.838;4.438;2023-08-12T17:27:26;24.20;99.90
59067;DHT22;44854;50.838;4.438;2023-08-12T17:29:52;24.00;99.90
59067;DHT22;44854;50.838;4.438;2023-08-12T17:32:17;24.00;99.90
59067;DHT22;44854;50.838;4.438;2023-08-12T17:34:43;24.10;99.90
59067;DHT22;44854;50.838;4.438;2023-08-12T17:37:08;24.30;99.90
59067;DHT22;44854;50.838;4.438;2023-08-12T17:39:34;24.20;99.90
59067;DHT22;44854;50.838;4.438;2023-08-12T17:42:00;24.20;99.90
59067;DHT22;44854;50.838;4.438;2023-08-12T17:44:26;24.10;99.90
59067;DHT22;44854;50.838;4.438;2023-08-12T17:46:51;24.10;99.90
59067;DHT22;44854;50.838;4.438;2023-08-12T17:49:17;24.00;99.90
59067;DHT22;44854;50.838;4.438;2023-08-12T17:51:43;23.90;99.90
59067;DHT22;44854;50.838;4.438;2023-08-12T17:54:09;23.90;99.90
59067;DHT22;44854;50.838;4.438;2023-08-12T17:56:34;23.80;99.90
59067;DHT22;44854;50.838;4.438;2023-08-12T17:59:00;23.70;99.90
59067;DHT22;44854;50.838;4.438;2023-08-12T18:01:26;23.60;99.90
59067;DHT22;44854;50.838;4.438;2023-08-12T18:03:51;23.70;99.90
59067;DHT22;44854;50.838;4.438;2023-08-12T18:06:17;23.70;99.90
59067;DHT22;44854;50.838;4.438;2023-08-12T18:08:42;23.60;99.90
59067;DHT22;44854;50.838;4.438;2023-08-12T18:11:08;23.50;99.90
59067;DHT22;44854;50.838;4.438;2023-08-12T18:13:33;23.40;99.90
59067;DHT22;44854;50.838;4.438;2023-08-12T18:15:59;23.50;99.90
59067;DHT22;44854;50.838;4.438;2023-08-12T18:18:25;23.50;99.90
59067;DHT22;44854;50.838;4.438;2023-08-12T18:20:50;23.60;99.90
59067;DHT22;44854;50.838;4.438;2023-08-12T18:23:16;23.60;99.90
59067;DHT22;44854;50.838;4.438;2023-08-12T18:25:41;23.60;99.90
59067;DHT22;44854;50.838;4.438;2023-08-12T18:28:07;23.60;99.90
59067;DHT22;44854;50.838;4.438;2023-08-12T18:30:33;23.60;99.90
59067;DHT22;44854;50.838;4.438;2023-08-12T18:32:58;23.60;99.90
59067;DHT22;44854;50.838;4.438;2023-08-12T18:35:28;23.60;99.90
59067;DHT22;44854;50.838;4.438;2023-08-12T18:37:53;23.60;99.90
59067;DHT22;44854;50.838;4.438;2023-08-12T18:40:19;23.50;99.90
59067;DHT22;44854;50.838;4.438;2023-08-12T18:42:45;23.50;99.90
59067;DHT22;44854;50.838;4.438;2023-08-12T18:45:10;23.20;99.90
59067;DHT22;44854;50.838;4.438;2023-08-12T18:47:36;23.30;99.90
59067;DHT22;44854;50.838;4.438;2023-08-12T18:50:02;23.20;99.90
59067;DHT22;44854;50.838;4.438;2023-08-12T18:52:28;23.20;99.90
59067;DHT22;44854;50.838;4.438;2023-08-12T18:54:53;23.20;99.90
59067;DHT22;44854;50.838;4.438;2023-08-12T18:57:19;23.20;99.90
59067;DHT22;44854;50.838;4.438;2023-08-12T18:59:44;23.20;99.90
59067;DHT22;44854;50.838;4.438;2023-08-12T19:02:10;23.40;99.90
59067;DHT22;44854;50.838;4.438;2023-08-12T19:04:35;23.10;99.90
59067;DHT22;44854;50.838;4.438;2023-08-12T19:07:01;23.00;99.90
59067;DHT22;44854;50.838;4.438;2023-08-12T19:09:26;22.80;99.90
59067;DHT22;44854;50.838;4.438;2023-08-12T19:11:52;22.80;99.90
59067;DHT22;44854;50.838;4.438;2023-08-12T19:14:18;22.70;99.90
59067;DHT22;44854;50.838;4.438;2023-08-12T19:16:44;22.60;99.90
59067;DHT22;44854;50.838;4.438;2023-08-12T19:19:09;22.60;99.90
59067;DHT22;44854;50.838;4.438;2023-08-12T19:21:36;22.50;99.90
59067;DHT22;44854;50.838;4.438;2023-08-12T19:24:02;22.60;99.90
59067;DHT22;44854;50.838;4.438;2023-08-12T19:26:28;22.50;99.90
59067;DHT22;44854;50.838;4.438;2023-08-12T19:28:53;22.60;99.90
59067;DHT22;44854;50.838;4.438;2023-08-12T19:31:19;22.50;99.90
59067;DHT22;44854;50.838;4.438;2023-08-12T19:33:44;22.50;99.90
59067;DHT22;44854;50.838;4.438;2023-08-12T19:36:10;22.30;99.90
59067;DHT22;44854;50.838;4.438;2023-08-12T19:38:36;22.30;99.90
59067;DHT22;44854;50.838;4.438;2023-08-12T19:41:01;22.30;99.90
59067;DHT22;44854;50.838;4.438;2023-08-12T19:43:31;22.40;99.90
59067;DHT22;44854;50.838;4.438;2023-08-12T19:45:57;22.30;99.90
59067;DHT22;44854;50.838;4.438;2023-08-12T19:48:22;22.30;99.90
59067;DHT22;44854;50.838;4.438;2023-08-12T19:50:50;22.30;99.90
59067;DHT22;44854;50.838;4.438;2023-08-12T19:53:18;22.30;99.90
59067;DHT22;44854;50.838;4.438;2023-08-12T19:55:44;22.30;99.90
59067;DHT22;44854;50.838;4.438;2023-08-12T19:58:10;22.20;99.90
59067;DHT22;44854;50.838;4.438;2023-08-12T20:00:35;22.40;99.90
59067;DHT22;44854;50.838;4.438;2023-08-12T20:03:01;22.40;99.90
59067;DHT22;44854;50.838;4.438;2023-08-12T20:05:27;22.40;99.90
59067;DHT22;44854;50.838;4.438;2023-08-12T20:07:55;22.20;99.90
59067;DHT22;44854;50.838;4.438;2023-08-12T20:10:21;22.20;99.90
59067;DHT22;44854;50.838;4.438;2023-08-12T20:12:47;22.00;99.90
59067;DHT22;44854;50.838;4.438;2023-08-12T20:15:12;22.00;99.90
59067;DHT22;44854;50.838;4.438;2023-08-12T20:17:38;21.90;99.90
59067;DHT22;44854;50.838;4.438;2023-08-12T20:20:04;21.70;99.90
59067;DHT22;44854;50.838;4.438;2023-08-12T20:22:40;21.80;99.90
59067;DHT22;44854;50.838;4.438;2023-08-12T20:25:07;21.70;99.90
59067;DHT22;44854;50.838;4.438;2023-08-12T20:27:32;21.90;99.90
59067;DHT22;44854;50.838;4.438;2023-08-12T20:29:58;21.80;99.90
59067;DHT22;44854;50.838;4.438;2023-08-12T20:32:24;21.70;99.90
59067;DHT22;44854;50.838;4.438;2023-08-12T20:34:54;21.60;99.90
59067;DHT22;44854;50.838;4.438;2023-08-12T20:37:19;21.40;99.90
59067;DHT22;44854;50.838;4.438;2023-08-12T20:39:45;21.60;99.90
59067;DHT22;44854;50.838;4.438;2023-08-12T20:42:11;21.50;99.90
59067;DHT22;44854;50.838;4.438;2023-08-12T20:44:36;21.50;99.90
59067;DHT22;44854;50.838;4.438;2023-08-12T20:47:02;21.40;99.90
59067;DHT22;44854;50.838;4.438;2023-08-12T20:49:27;21.30;99.90
59067;DHT22;44854;50.838;4.438;2023-08-12T20:51:53;21.30;99.90
59067;DHT22;44854;50.838;4.438;2023-08-12T20:54:18;21.40;99.90
59067;DHT22;44854;50.838;4.438;2023-08-12T20:56:45;21.30;99.90
59067;DHT22;44854;50.838;4.438;2023-08-12T20:59:11;21.30;99.90